Time;durP1;ratioP1;P1;durP2;ratioP2;P2;SDS_P1;SDS_P2;PMS_P1;PMS_P2;Temp;Humidity;BMP_temperature;BMP_pressure;BME280_temperature;BME280_humidity;BME280_pressure;Samples;Min_cycle;Max_cycle;Signal;HPM_P1;HPM_P2
2023/08/02 03:00:33;;;;;;;;;;;15.10;99.90;;;;;;5949417;23;20074;-78
2023/08/02 03:02:59;;;;;;;;;;;15.10;99.90;;;;;;5036447;28;20383;-79
2023/08/02 03:05:24;;;;;;;;;;;15.10;99.90;;;;;;5036794;28;19932;-78
2023/08/02 03:07:50;;;;;;;;;;;15.10;99.90;;;;;;5036674;28;19921;-80
2023/08/02 03:10:15;;;;;;;;;;;15.10;99.90;;;;;;5036830;28;19921;-78
2023/08/02 03:12:41;;;;;;;;;;;15.10;99.90;;;;;;5036866;28;19920;-79
2023/08/02 03:15:07;;;;;;;;;;;15.10;99.90;;;;;;5036503;28;20003;-77
2023/08/02 03:17:32;;;;;;;;;;;15.10;99.90;;;;;;5036423;28;19921;-78
2023/08/02 03:19:58;;;;;;;;;;;15.10;99.90;;;;;;5036459;28;19928;-79
2023/08/02 03:22:23;;;;;;;;;;;15.10;99.90;;;;;;5019703;28;19925;-77
2023/08/02 03:24:49;;;;;;;;;;;15.00;99.90;;;;;;5036345;28;20020;-79
2023/08/02 03:27:14;;;;;;;;;;;15.00;99.90;;;;;;5054553;28;19940;-79
2023/08/02 03:29:40;;;;;;;;;;;15.00;99.90;;;;;;5054371;28;20356;-77
2023/08/02 03:32:06;;;;;;;;;;;15.00;99.90;;;;;;5036097;28;20340;-78
2023/08/02 03:34:31;;;;;;;;;;;14.90;99.90;;;;;;5036444;28;19925;-77
2023/08/02 03:36:57;;;;;;;;;;;14.90;99.90;;;;;;5036045;28;19921;-79
2023/08/02 03:39:26;;;;;;;;;;;14.90;99.90;;;;;;5036043;28;19925;-78
2023/08/02 03:41:53;;;;;;;;;;;14.90;99.90;;;;;;5036554;28;19925;-78
2023/08/02 03:44:18;;;;;;;;;;;14.80;99.90;;;;;;5054135;28;19963;-79
2023/08/02 03:46:44;;;;;;;;;;;14.80;99.90;;;;;;5035889;28;19967;-79
2023/08/02 03:49:10;;;;;;;;;;;14.80;99.90;;;;;;5035693;28;19944;-79
2023/08/02 03:51:35;;;;;;;;;;;14.70;99.90;;;;;;5035594;28;19974;-78
2023/08/02 03:54:03;;;;;;;;;;;14.70;99.90;;;;;;5036055;28;19928;-78
2023/08/02 03:56:29;;;;;;;;;;;14.70;99.90;;;;;;5036113;28;19921;-78
2023/08/02 03:58:54;;;;;;;;;;;14.70;99.90;;;;;;5053644;28;19978;-78
2023/08/02 04:01:20;;;;;;;;;;;14.70;99.90;;;;;;5036150;28;19970;-77
2023/08/02 04:03:46;;;;;;;;;;;14.60;99.90;;;;;;5039786;28;19925;-77
2023/08/02 04:06:11;;;;;;;;;;;14.60;99.90;;;;;;5039932;28;19971;-80
2023/08/02 04:08:40;;;;;;;;;;;14.60;99.90;;;;;;5039690;28;19921;-80
2023/08/02 04:11:06;;;;;;;;;;;14.60;99.90;;;;;;5040126;28;19931;-78
2023/08/02 04:13:32;;;;;;;;;;;14.60;99.90;;;;;;5040131;28;20295;-78
2023/08/02 04:15:58;;;;;;;;;;;14.60;99.90;;;;;;5057209;28;20368;-76
2023/08/02 04:18:23;;;;;;;;;;;14.60;99.90;;;;;;5039702;28;19921;-78
2023/08/02 04:20:49;;;;;;;;;;;14.50;99.90;;;;;;5039479;28;19927;-78
2023/08/02 04:23:14;;;;;;;;;;;14.50;99.90;;;;;;5039451;28;20012;-77
2023/08/02 04:25:40;;;;;;;;;;;14.50;99.90;;;;;;5039500;28;19967;-78
2023/08/02 04:28:06;;;;;;;;;;;14.50;99.90;;;;;;5057563;28;19925;-77
2023/08/02 04:30:31;;;;;;;;;;;14.50;99.90;;;;;;5039634;28;19930;-78
2023/08/02 04:32:57;;;;;;;;;;;14.50;99.90;;;;;;5039652;28;20363;-78
2023/08/02 04:35:22;;;;;;;;;;;14.40;99.90;;;;;;5039568;28;19920;-78
2023/08/02 04:37:48;;;;;;;;;;;14.50;99.90;;;;;;5057460;28;19921;-85
2023/08/02 04:40:14;;;;;;;;;;;14.50;99.90;;;;;;5039546;28;19921;-77
2023/08/02 04:42:42;;;;;;;;;;;14.50;99.90;;;;;;5039883;28;20284;-81
2023/08/02 04:45:11;;;;;;;;;;;14.50;99.90;;;;;;5040021;28;19925;-82
2023/08/02 04:47:37;;;;;;;;;;;14.40;99.90;;;;;;5057515;28;19987;-82
2023/08/02 04:50:02;;;;;;;;;;;14.50;99.90;;;;;;5039772;28;19920;-79
2023/08/02 04:52:41;;;;;;;;;;;14.40;99.90;;;;;;5039604;28;19920;-82
2023/08/02 04:55:07;;;;;;;;;;;14.40;99.90;;;;;;5039331;28;19943;-81
2023/08/02 04:57:33;;;;;;;;;;;14.40;99.90;;;;;;5057558;28;19921;-86
2023/08/02 04:59:58;;;;;;;;;;;14.40;99.90;;;;;;5040111;28;20055;-84
2023/08/02 05:02:29;;;;;;;;;;;14.50;99.90;;;;;;5039066;28;20449;-85
2023/08/02 05:04:54;;;;;;;;;;;14.50;99.90;;;;;;5039467;28;19921;-84
2023/08/02 05:07:20;;;;;;;;;;;14.50;99.90;;;;;;5022984;28;20390;-85
2023/08/02 05:09:45;;;;;;;;;;;14.50;99.90;;;;;;5057286;28;19929;-84
2023/08/02 05:12:11;;;;;;;;;;;14.50;99.90;;;;;;5038829;28;19921;-85
2023/08/02 05:14:36;;;;;;;;;;;14.50;99.90;;;;;;5039639;28;19970;-85
2023/08/02 05:17:07;;;;;;;;;;;14.50;99.90;;;;;;5022669;28;20349;-80
2023/08/02 05:19:33;;;;;;;;;;;14.50;99.90;;;;;;5057044;28;19920;-80
2023/08/02 05:21:59;;;;;;;;;;;14.60;99.90;;;;;;5039066;28;20035;-82
2023/08/02 05:24:24;;;;;;;;;;;14.60;99.90;;;;;;5057053;28;19963;-85
2023/08/02 05:26:50;;;;;;;;;;;14.60;99.90;;;;;;5056277;28;19921;-84
2023/08/02 05:29:15;;;;;;;;;;;14.60;99.90;;;;;;5038911;28;19925;-86
2023/08/02 05:31:41;;;;;;;;;;;14.60;99.90;;;;;;5038834;28;20283;-85
2023/08/02 05:34:06;;;;;;;;;;;14.60;99.90;;;;;;5038836;28;20328;-85
2023/08/02 05:36:32;;;;;;;;;;;14.70;99.90;;;;;;5038569;28;19921;-84
2023/08/02 05:38:57;;;;;;;;;;;14.70;99.90;;;;;;5038443;28;19944;-82
2023/08/02 05:41:23;;;;;;;;;;;14.70;99.90;;;;;;5056215;28;20063;-84
2023/08/02 05:43:49;;;;;;;;;;;14.70;99.90;;;;;;5021817;28;19925;-83
2023/08/02 05:46:14;;;;;;;;;;;14.70;99.90;;;;;;5021665;28;19921;-85
2023/08/02 05:48:40;;;;;;;;;;;14.80;99.90;;;;;;5022002;28;19921;-82
2023/08/02 05:51:05;;;;;;;;;;;14.80;99.90;;;;;;5038131;28;19931;-84
2023/08/02 05:53:31;;;;;;;;;;;14.80;99.90;;;;;;5021951;28;20011;-84
2023/08/02 05:55:57;;;;;;;;;;;14.80;99.90;;;;;;5055962;28;19921;-85
2023/08/02 05:58:23;;;;;;;;;;;14.90;99.90;;;;;;5038159;28;19974;-83
2023/08/02 06:00:49;;;;;;;;;;;14.90;99.90;;;;;;5055927;28;19925;-84
2023/08/02 06:03:14;;;;;;;;;;;14.90;99.90;;;;;;5056181;28;19928;-82
2023/08/02 06:05:40;;;;;;;;;;;14.90;99.90;;;;;;5038077;28;19921;-84
2023/08/02 06:08:06;;;;;;;;;;;14.90;99.90;;;;;;5038074;28;19921;-85
2023/08/02 06:10:31;;;;;;;;;;;14.90;99.90;;;;;;5055625;28;19986;-82
2023/08/02 06:12:57;;;;;;;;;;;14.90;99.90;;;;;;5037634;28;20002;-81
2023/08/02 06:15:23;;;;;;;;;;;15.00;99.90;;;;;;5055868;28;19967;-84
2023/08/02 06:17:51;;;;;;;;;;;14.90;99.90;;;;;;5055923;28;19987;-81
2023/08/02 06:20:17;;;;;;;;;;;15.00;99.90;;;;;;5056621;28;19973;-86
2023/08/02 06:23:01;;;;;;;;;;;15.00;99.90;;;;;;5055321;28;20397;-84
2023/08/02 06:25:30;;;;;;;;;;;15.00;99.90;;;;;;5035598;28;19960;-85
2023/08/02 06:27:56;;;;;;;;;;;15.10;99.90;;;;;;5055930;28;19932;-85
2023/08/02 06:30:24;;;;;;;;;;;15.10;99.90;;;;;;5036214;28;19932;-83
2023/08/02 06:32:50;;;;;;;;;;;15.10;99.90;;;;;;5021583;28;19928;-84
2023/08/02 06:35:15;;;;;;;;;;;15.10;99.90;;;;;;5055621;28;19920;-84
2023/08/02 06:37:41;;;;;;;;;;;15.10;99.90;;;;;;5038945;28;19990;-85
2023/08/02 06:40:07;;;;;;;;;;;15.10;99.90;;;;;;5037333;28;20297;-85
2023/08/02 06:42:32;;;;;;;;;;;15.10;99.90;;;;;;5037268;28;19924;-83
2023/08/02 06:44:58;;;;;;;;;;;15.10;99.90;;;;;;5037647;28;19927;-85
2023/08/02 06:47:24;;;;;;;;;;;15.10;99.90;;;;;;5021853;28;19924;-85
2023/08/02 06:49:50;;;;;;;;;;;15.10;99.90;;;;;;5055609;28;19979;-85
2023/08/02 06:52:16;;;;;;;;;;;15.10;99.90;;;;;;5037084;28;20319;-83
2023/08/02 06:54:42;;;;;;;;;;;15.10;99.90;;;;;;5055416;28;19928;-82
2023/08/02 06:57:08;;;;;;;;;;;15.10;99.90;;;;;;5055075;28;19920;-84
2023/08/02 06:59:34;;;;;;;;;;;15.10;99.90;;;;;;5055727;28;19928;-85
2023/08/02 07:01:59;;;;;;;;;;;15.10;99.90;;;;;;5055090;28;20284;-84
2023/08/02 07:04:25;;;;;;;;;;;15.10;99.90;;;;;;5029311;28;20438;-83
2023/08/02 07:06:50;;;;;;;;;;;15.10;99.90;;;;;;5017362;28;20377;-83
2023/08/02 07:09:16;;;;;;;;;;;15.20;99.90;;;;;;5016781;28;19947;-82
2023/08/02 07:11:42;;;;;;;;;;;15.10;99.90;;;;;;5017010;28;19928;-84
2023/08/02 07:14:07;;;;;;;;;;;15.10;99.90;;;;;;5035101;28;20003;-82
2023/08/02 07:16:59;;;;;;;;;;;15.10;99.90;;;;;;5001221;28;19975;-84
2023/08/02 07:19:25;;;;;;;;;;;15.10;99.90;;;;;;5000452;28;20283;-83
2023/08/02 07:21:50;;;;;;;;;;;15.10;99.90;;;;;;5017185;28;19921;-83
2023/08/02 07:24:34;;;;;;;;;;;15.20;99.90;;;;;;5001099;28;19971;-84
2023/08/02 07:26:59;;;;;;;;;;;15.20;99.90;;;;;;5017583;28;19921;-82
2023/08/02 07:29:25;;;;;;;;;;;15.20;99.90;;;;;;5035032;28;19931;-83
2023/08/02 07:31:51;;;;;;;;;;;15.20;99.90;;;;;;5001122;28;19925;-83
2023/08/02 07:34:16;;;;;;;;;;;15.20;99.90;;;;;;5016848;28;19964;-84
2023/08/02 07:36:42;;;;;;;;;;;15.20;99.90;;;;;;5016343;28;19928;-85
2023/08/02 07:39:08;;;;;;;;;;;15.20;99.90;;;;;;5035174;28;19960;-84
2023/08/02 07:41:42;;;;;;;;;;;15.20;99.90;;;;;;5001062;28;20347;-84
2023/08/02 07:44:08;;;;;;;;;;;15.20;99.90;;;;;;5018186;28;20416;-79
2023/08/02 07:58:44;;;;;;;;;;;15.00;99.90;;;;;;5031946;28;20012;-80
2023/08/02 08:01:10;;;;;;;;;;;15.00;99.90;;;;;;5028925;28;20405;-77
2023/08/02 08:03:44;;;;;;;;;;;15.00;99.90;;;;;;5013932;28;20016;-82
2023/08/02 08:09:37;;;;;;;;;;;15.00;99.90;;;;;;4937503;28;19977;-81
2023/08/02 08:12:06;;;;;;;;;;;14.90;99.90;;;;;;4972766;28;19969;-82
2023/08/02 08:14:32;;;;;;;;;;;14.90;99.90;;;;;;4972932;28;19922;-84
2023/08/02 08:16:58;;;;;;;;;;;14.90;99.90;;;;;;4973210;28;19922;-83
2023/08/02 08:19:25;;;;;;;;;;;14.90;99.90;;;;;;4978807;28;19989;-84
2023/08/02 08:21:50;;;;;;;;;;;14.90;99.90;;;;;;4962888;28;19922;-82
2023/08/02 08:24:16;;;;;;;;;;;14.90;99.90;;;;;;4980578;28;19961;-85
2023/08/02 08:26:41;;;;;;;;;;;14.90;99.90;;;;;;4956314;28;19985;-83
2023/08/02 08:29:07;;;;;;;;;;;14.90;99.90;;;;;;4971484;28;19922;-85
2023/08/02 08:31:33;;;;;;;;;;;14.80;99.90;;;;;;4970991;28;20004;-86
2023/08/02 08:33:58;;;;;;;;;;;14.80;99.90;;;;;;4971039;28;19953;-82
2023/08/02 08:36:26;;;;;;;;;;;14.90;99.90;;;;;;4979341;28;19921;-82
2023/08/02 08:38:51;;;;;;;;;;;14.90;99.90;;;;;;4996163;28;19929;-79
2023/08/02 08:41:17;;;;;;;;;;;14.90;99.90;;;;;;5013730;28;19921;-81
2023/08/02 08:43:43;;;;;;;;;;;14.90;99.90;;;;;;5013558;28;20446;-81
2023/08/02 08:46:15;;;;;;;;;;;14.90;99.90;;;;;;5013299;28;20063;-81
2023/08/02 08:48:50;;;;;;;;;;;15.00;99.90;;;;;;4998238;28;20012;-81
2023/08/02 08:57:52;;;;;;;;;;;;;;;;;;;;;
2023/08/02 09:29:22;;;;;;;;;;;15.40;99.90;;;;;;1365227;23;20199;-82
2023/08/02 09:31:51;;;;;;;;;;;15.40;99.90;;;;;;5035148;28;19979;-82
2023/08/02 09:34:37;;;;;;;;;;;15.50;99.90;;;;;;5018930;28;20012;-81
2023/08/02 09:40:47;;;;;;;;;;;;;;;;;;;;;
2023/08/02 09:43:20;;;;;;;;;;;15.40;99.90;;;;;;5014834;28;19996;-81
2023/08/02 09:45:51;;;;;;;;;;;15.50;99.90;;;;;;5002566;28;20372;-81
2023/08/02 09:51:58;;;;;;;;;;;;;;;;;;;;;
2023/08/02 09:54:42;;;;;;;;;;;;;;;;;;;;;
2023/08/02 09:57:27;;;;;;;;;;;15.50;99.90;;;;;;5017030;28;19927;-80
2023/08/02 10:13:29;;;;;;;;;;;;;;;;;;;;;
2023/08/02 10:19:43;;;;;;;;;;;15.70;99.90;;;;;;4897851;29;19934;-80
2023/08/02 10:25:35;;;;;;;;;;;;;;;;;;;;;
2023/08/02 10:32:22;;;;;;;;;;;;;;;;;;;;;
2023/08/02 10:39:07;;;;;;;;;;;15.80;99.90;;;;;;4972565;28;19922;-82
2023/08/02 10:59:56;;;;;;;;;;;16.20;99.90;;;;;;4915837;29;19991;-80
2023/08/02 11:16:05;;;;;;;;;;;16.60;99.90;;;;;;5127221;23;19926;-81
2023/08/02 11:28:28;;;;;;;;;;;16.90;99.90;;;;;;4915485;29;20293;-82
2023/08/02 11:35:06;;;;;;;;;;;;;;;;;;;;;
2023/08/02 11:40:37;;;;;;;;;;;17.40;99.90;;;;;;4996270;28;19949;-82
2023/08/02 11:43:24;;;;;;;;;;;17.60;99.90;;;;;;5014059;28;19926;-82
2023/08/02 11:49:24;;;;;;;;;;;17.90;99.90;;;;;;4981638;28;19933;-81
2023/08/02 11:51:49;;;;;;;;;;;18.10;99.90;;;;;;5013782;28;20333;-83
2023/08/02 11:54:21;;;;;;;;;;;18.30;99.90;;;;;;5013973;28;19932;-82
2023/08/02 11:56:53;;;;;;;;;;;18.30;99.90;;;;;;4979707;28;19921;-83
2023/08/02 11:59:59;;;;;;;;;;;;;;;;;;;;;
2023/08/02 12:02:51;;;;;;;;;;;18.30;99.90;;;;;;4979946;23;19926;-82
2023/08/02 12:05:28;;;;;;;;;;;18.20;99.90;;;;;;4953719;28;19931;-82
2023/08/02 12:08:27;;;;;;;;;;;18.10;99.90;;;;;;4974960;28;19922;-82
2023/08/02 12:11:12;;;;;;;;;;;18.10;99.90;;;;;;4961667;28;19922;-81
2023/08/02 12:20:43;;;;;;;;;;;18.60;99.90;;;;;;4895770;29;19923;-83
2023/08/02 12:23:09;;;;;;;;;;;18.90;99.90;;;;;;4884221;29;19927;-82
2023/08/02 12:25:48;;;;;;;;;;;19.10;99.90;;;;;;4900717;29;20011;-83
2023/08/02 12:28:16;;;;;;;;;;;19.20;99.90;;;;;;4888466;29;19938;-82
2023/08/02 12:30:58;;;;;;;;;;;19.30;99.90;;;;;;4943729;28;19930;-82
2023/08/02 12:33:24;;;;;;;;;;;19.50;99.90;;;;;;4981115;28;19985;-82
2023/08/02 12:35:52;;;;;;;;;;;19.70;99.90;;;;;;4996639;28;20289;-81
2023/08/02 12:38:18;;;;;;;;;;;19.90;99.90;;;;;;4981155;28;19921;-83
2023/08/02 12:40:46;;;;;;;;;;;20.10;99.90;;;;;;4998130;28;20336;-83
2023/08/02 12:43:18;;;;;;;;;;;20.10;99.90;;;;;;4981166;28;20017;-81
2023/08/02 12:45:47;;;;;;;;;;;20.00;99.90;;;;;;4980435;28;19922;-82
2023/08/02 12:48:18;;;;;;;;;;;19.90;99.90;;;;;;4997723;28;19922;-81
2023/08/02 12:50:44;;;;;;;;;;;19.70;99.90;;;;;;4997718;28;19922;-82
2023/08/02 12:53:09;;;;;;;;;;;19.60;99.90;;;;;;4997427;28;19922;-81
2023/08/02 12:55:35;;;;;;;;;;;19.60;99.90;;;;;;4997766;28;19922;-82
2023/08/02 12:58:01;;;;;;;;;;;19.70;99.90;;;;;;4997537;28;19921;-82
2023/08/02 13:00:35;;;;;;;;;;;19.90;99.90;;;;;;4965157;28;20044;-81
2023/08/02 13:03:01;;;;;;;;;;;19.90;99.90;;;;;;4996905;28;19974;-82
2023/08/02 13:05:26;;;;;;;;;;;19.90;99.90;;;;;;4997696;28;19922;-81
2023/08/02 13:07:52;;;;;;;;;;;19.80;99.90;;;;;;4998366;28;19934;-80
2023/08/02 13:10:17;;;;;;;;;;;19.80;99.90;;;;;;4998975;28;19957;-82
2023/08/02 13:12:43;;;;;;;;;;;19.70;99.90;;;;;;4997854;28;19929;-84
2023/08/02 13:15:09;;;;;;;;;;;19.90;99.90;;;;;;4980077;28;19922;-82
2023/08/02 13:17:35;;;;;;;;;;;20.10;99.90;;;;;;4997360;28;20396;-82
2023/08/02 13:20:04;;;;;;;;;;;20.30;99.90;;;;;;4979988;28;19926;-83
2023/08/02 13:22:30;;;;;;;;;;;20.50;99.90;;;;;;4979874;28;19929;-83
2023/08/02 13:24:55;;;;;;;;;;;20.50;99.90;;;;;;4997667;28;19922;-83
2023/08/02 13:27:21;;;;;;;;;;;20.40;99.90;;;;;;4996926;28;19922;-81
2023/08/02 13:29:47;;;;;;;;;;;20.20;99.90;;;;;;4979551;28;19922;-81
2023/08/02 13:32:13;;;;;;;;;;;20.20;99.90;;;;;;4979693;28;20004;-83
2023/08/02 13:34:38;;;;;;;;;;;20.30;99.90;;;;;;4995861;28;19933;-81
2023/08/02 13:37:05;;;;;;;;;;;20.60;99.90;;;;;;4997053;28;20022;-81
2023/08/02 13:39:30;;;;;;;;;;;20.70;99.90;;;;;;4997108;28;19926;-82
2023/08/02 13:41:56;;;;;;;;;;;20.80;99.90;;;;;;4996772;28;19928;-80
2023/08/02 13:44:22;;;;;;;;;;;20.70;99.90;;;;;;4997171;28;19922;-83
2023/08/02 13:46:47;;;;;;;;;;;20.80;99.90;;;;;;4996845;28;20016;-83
2023/08/02 13:49:13;;;;;;;;;;;20.90;99.90;;;;;;4997473;28;19922;-80
2023/08/02 13:51:39;;;;;;;;;;;20.80;99.90;;;;;;4997174;28;19928;-82
2023/08/02 13:54:04;;;;;;;;;;;20.70;99.90;;;;;;4997124;28;19968;-81
2023/08/02 13:56:30;;;;;;;;;;;20.60;99.90;;;;;;4996932;28;19932;-81
2023/08/02 13:58:55;;;;;;;;;;;20.60;99.90;;;;;;4996620;28;20004;-83
2023/08/02 14:01:21;;;;;;;;;;;20.70;99.90;;;;;;4995760;28;20011;-82
2023/08/02 14:03:46;;;;;;;;;;;20.90;99.90;;;;;;4977601;28;19948;-81
2023/08/02 14:06:12;;;;;;;;;;;21.10;99.90;;;;;;4994698;28;19957;-83
2023/08/02 14:08:37;;;;;;;;;;;21.10;99.90;;;;;;4995564;28;20389;-78
2023/08/02 14:11:03;;;;;;;;;;;21.10;99.90;;;;;;4996903;28;20286;-83
2023/08/02 14:13:28;;;;;;;;;;;21.10;99.90;;;;;;4997140;28;19968;-80
2023/08/02 14:15:54;;;;;;;;;;;21.10;99.90;;;;;;4979427;28;19921;-79
2023/08/02 14:18:20;;;;;;;;;;;21.10;99.90;;;;;;4997278;28;19932;-81
2023/08/02 14:20:45;;;;;;;;;;;21.00;99.90;;;;;;4978939;28;19929;-80
2023/08/02 14:23:11;;;;;;;;;;;20.90;99.90;;;;;;4996604;28;20258;-83
2023/08/02 14:25:37;;;;;;;;;;;20.80;99.90;;;;;;4996936;28;20029;-82
2023/08/02 14:28:02;;;;;;;;;;;20.70;99.90;;;;;;4996987;28;19921;-80
2023/08/02 14:30:28;;;;;;;;;;;20.60;99.90;;;;;;4997568;28;20345;-82
2023/08/02 14:32:54;;;;;;;;;;;20.60;99.90;;;;;;4978606;28;19970;-76
2023/08/02 14:35:19;;;;;;;;;;;20.60;99.90;;;;;;4996404;28;19922;-80
2023/08/02 14:37:45;;;;;;;;;;;20.50;99.90;;;;;;4996435;28;19922;-79
2023/08/02 14:40:11;;;;;;;;;;;20.60;99.90;;;;;;4978698;28;19977;-83
2023/08/02 14:42:37;;;;;;;;;;;20.60;99.90;;;;;;4995854;28;19933;-80
2023/08/02 14:45:02;;;;;;;;;;;20.70;99.90;;;;;;4978527;28;19922;-79
2023/08/02 14:47:28;;;;;;;;;;;20.80;99.90;;;;;;4979075;28;19978;-83
2023/08/02 14:49:53;;;;;;;;;;;20.90;99.90;;;;;;4996055;28;19922;-80
2023/08/02 14:52:19;;;;;;;;;;;21.10;99.90;;;;;;4995564;28;19922;-78
2023/08/02 14:54:45;;;;;;;;;;;21.10;99.90;;;;;;4996298;28;19968;-80
2023/08/02 14:57:10;;;;;;;;;;;21.00;99.90;;;;;;4996141;28;20020;-84
2023/08/02 14:59:36;;;;;;;;;;;21.00;99.90;;;;;;4995669;28;19922;-81
2023/08/02 15:02:02;;;;;;;;;;;20.70;99.90;;;;;;4995305;28;19921;-79
2023/08/02 15:04:27;;;;;;;;;;;20.60;99.90;;;;;;4995711;28;19961;-80
2023/08/02 15:06:53;;;;;;;;;;;20.50;99.90;;;;;;4996087;28;19921;-80
2023/08/02 15:09:18;;;;;;;;;;;20.50;99.90;;;;;;4995848;28;19929;-77
2023/08/02 15:11:44;;;;;;;;;;;20.70;99.90;;;;;;4995903;28;20285;-81
2023/08/02 15:14:10;;;;;;;;;;;20.90;99.90;;;;;;4995415;28;20262;-79
2023/08/02 15:16:36;;;;;;;;;;;20.90;99.90;;;;;;4995339;28;19921;-81
2023/08/02 15:19:01;;;;;;;;;;;20.70;99.90;;;;;;4994899;28;20266;-77
2023/08/02 15:21:27;;;;;;;;;;;20.70;99.90;;;;;;4994939;28;19922;-78
2023/08/02 15:23:52;;;;;;;;;;;20.60;99.90;;;;;;4977870;28;20278;-79
2023/08/02 15:26:20;;;;;;;;;;;20.50;99.90;;;;;;4977425;28;20331;-83
2023/08/02 15:28:46;;;;;;;;;;;20.50;99.90;;;;;;4978091;28;20016;-78
2023/08/02 15:31:11;;;;;;;;;;;20.50;99.90;;;;;;4994829;28;19969;-82
2023/08/02 15:33:38;;;;;;;;;;;20.50;99.90;;;;;;4995420;28;20318;-80
2023/08/02 15:36:04;;;;;;;;;;;20.50;99.90;;;;;;4995293;28;19929;-80
2023/08/02 15:38:29;;;;;;;;;;;20.50;99.90;;;;;;4995843;28;19922;-82
2023/08/02 15:40:55;;;;;;;;;;;20.60;99.90;;;;;;4977434;28;19946;-80
2023/08/02 15:43:20;;;;;;;;;;;20.80;99.90;;;;;;4995056;28;20334;-77
2023/08/02 15:45:46;;;;;;;;;;;20.90;99.90;;;;;;4994970;28;19931;-79
2023/08/02 15:48:12;;;;;;;;;;;20.90;99.90;;;;;;4977113;28;19922;-76
2023/08/02 15:50:38;;;;;;;;;;;21.00;99.90;;;;;;4977137;28;19978;-79
2023/08/02 15:53:06;;;;;;;;;;;20.90;99.90;;;;;;4994890;28;19922;-79
2023/08/02 15:55:32;;;;;;;;;;;20.70;99.90;;;;;;4994969;28;19922;-81
2023/08/02 15:57:58;;;;;;;;;;;20.80;99.90;;;;;;4976458;28;20305;-79
2023/08/02 16:00:24;;;;;;;;;;;20.80;99.90;;;;;;4994572;28;20020;-76
2023/08/02 16:02:49;;;;;;;;;;;20.70;99.90;;;;;;4994674;28;20021;-80
2023/08/02 16:05:15;;;;;;;;;;;20.50;99.90;;;;;;4995047;28;20029;-80
2023/08/02 16:07:41;;;;;;;;;;;20.40;99.90;;;;;;4994592;28;20373;-80
2023/08/02 16:10:07;;;;;;;;;;;20.40;99.90;;;;;;4994606;28;19921;-81
2023/08/02 16:12:32;;;;;;;;;;;20.30;99.90;;;;;;4994789;28;20374;-79
2023/08/02 16:14:59;;;;;;;;;;;20.20;99.90;;;;;;4977399;28;19928;-81
2023/08/02 16:17:24;;;;;;;;;;;20.20;99.90;;;;;;4994376;28;19946;-77
2023/08/02 16:19:50;;;;;;;;;;;20.20;99.90;;;;;;4994844;28;19925;-80
2023/08/02 16:22:15;;;;;;;;;;;20.20;99.90;;;;;;4976811;28;19922;-77
2023/08/02 16:24:41;;;;;;;;;;;20.10;99.90;;;;;;4994967;28;20289;-79
2023/08/02 16:27:06;;;;;;;;;;;20.10;99.90;;;;;;4994538;28;19922;-80
2023/08/02 16:29:32;;;;;;;;;;;20.00;99.90;;;;;;4994085;28;20341;-77
2023/08/02 16:32:00;;;;;;;;;;;20.00;99.90;;;;;;4994330;28;19933;-79
2023/08/02 16:34:26;;;;;;;;;;;20.00;99.90;;;;;;4994755;28;19921;-82
2023/08/02 16:36:51;;;;;;;;;;;19.90;99.90;;;;;;4994408;28;20408;-81
2023/08/02 16:39:17;;;;;;;;;;;19.90;99.90;;;;;;4977674;28;19940;-74
2023/08/02 16:41:43;;;;;;;;;;;19.80;99.90;;;;;;4977322;28;19922;-81
2023/08/02 16:44:08;;;;;;;;;;;19.80;99.90;;;;;;4994049;28;20384;-80
2023/08/02 16:46:34;;;;;;;;;;;19.80;99.90;;;;;;4976725;28;19929;-80
2023/08/02 16:49:01;;;;;;;;;;;19.90;99.90;;;;;;4994342;28;19973;-81
2023/08/02 16:51:26;;;;;;;;;;;19.80;99.90;;;;;;4977682;28;19928;-81
2023/08/02 16:53:52;;;;;;;;;;;19.80;99.90;;;;;;4978886;28;20344;-81
2023/08/02 16:56:18;;;;;;;;;;;19.70;99.90;;;;;;4994526;28;19926;-81
2023/08/02 16:58:44;;;;;;;;;;;19.70;99.90;;;;;;4993854;28;20293;-80
2023/08/02 17:01:12;;;;;;;;;;;19.60;99.90;;;;;;4976968;28;20285;-82
2023/08/02 17:03:38;;;;;;;;;;;19.60;99.90;;;;;;4976136;28;19926;-81
2023/08/02 17:06:03;;;;;;;;;;;19.60;99.90;;;;;;4994541;28;20053;-82
2023/08/02 17:08:29;;;;;;;;;;;19.50;99.90;;;;;;4995337;28;19921;-80
2023/08/02 17:10:54;;;;;;;;;;;19.50;99.90;;;;;;4997763;28;19922;-80
2023/08/02 17:13:20;;;;;;;;;;;19.40;99.90;;;;;;4997615;28;19968;-79
2023/08/02 17:15:51;;;;;;;;;;;19.50;99.90;;;;;;4996501;28;19945;-80
2023/08/02 17:18:17;;;;;;;;;;;19.40;99.90;;;;;;4980247;28;20325;-81
2023/08/02 17:20:42;;;;;;;;;;;19.50;99.90;;;;;;4980050;28;19971;-81
2023/08/02 17:23:08;;;;;;;;;;;19.40;99.90;;;;;;4979391;28;20021;-83
2023/08/02 17:25:34;;;;;;;;;;;19.40;99.90;;;;;;4997693;28;19922;-80
2023/08/02 17:27:59;;;;;;;;;;;19.40;99.90;;;;;;4997598;28;19926;-84
2023/08/02 17:30:26;;;;;;;;;;;19.40;99.90;;;;;;4997149;28;20455;-81
2023/08/02 17:32:52;;;;;;;;;;;19.20;99.90;;;;;;4997443;28;19922;-82
2023/08/02 17:35:17;;;;;;;;;;;19.20;99.90;;;;;;4980645;28;19933;-81
2023/08/02 17:37:43;;;;;;;;;;;19.20;99.90;;;;;;4996616;28;19929;-80
2023/08/02 17:40:09;;;;;;;;;;;19.20;99.90;;;;;;4979700;28;20278;-83
2023/08/02 17:42:36;;;;;;;;;;;19.10;99.90;;;;;;4997422;28;19932;-78
2023/08/02 17:45:02;;;;;;;;;;;19.10;99.90;;;;;;4997445;28;19922;-82
2023/08/02 17:47:28;;;;;;;;;;;19.10;99.90;;;;;;4979682;28;19922;-78
2023/08/02 17:50:04;;;;;;;;;;;19.00;99.90;;;;;;4979368;28;19977;-81
2023/08/02 17:52:30;;;;;;;;;;;19.00;99.90;;;;;;4979216;28;20377;-80
2023/08/02 17:54:55;;;;;;;;;;;18.90;99.90;;;;;;4979786;28;19921;-82
2023/08/02 17:57:21;;;;;;;;;;;19.00;99.90;;;;;;4997747;28;19991;-80
2023/08/02 17:59:51;;;;;;;;;;;18.90;99.90;;;;;;4996847;28;19922;-80
2023/08/02 18:02:17;;;;;;;;;;;18.90;99.90;;;;;;4996909;28;19922;-81
2023/08/02 18:04:43;;;;;;;;;;;18.90;99.90;;;;;;4997343;28;20309;-80
2023/08/02 18:07:09;;;;;;;;;;;18.80;99.90;;;;;;4996261;28;20337;-82
2023/08/02 18:09:35;;;;;;;;;;;18.90;99.90;;;;;;4996237;28;20009;-80
2023/08/02 18:12:00;;;;;;;;;;;18.80;99.90;;;;;;4979256;28;19968;-79
2023/08/02 18:14:26;;;;;;;;;;;18.80;99.90;;;;;;4962905;28;19981;-81
2023/08/02 18:16:52;;;;;;;;;;;18.70;99.90;;;;;;4996734;28;19922;-78
2023/08/02 18:19:17;;;;;;;;;;;18.70;99.90;;;;;;4996383;28;19984;-81
2023/08/02 18:21:44;;;;;;;;;;;18.60;99.90;;;;;;4996271;28;19929;-82
2023/08/02 18:24:10;;;;;;;;;;;18.60;99.90;;;;;;4995931;28;19933;-82
2023/08/02 18:26:35;;;;;;;;;;;18.50;99.90;;;;;;4996665;28;19921;-80
2023/08/02 18:29:04;;;;;;;;;;;18.50;99.90;;;;;;4998380;28;20004;-81
2023/08/02 18:31:30;;;;;;;;;;;18.50;99.90;;;;;;4997856;28;19928;-81
2023/08/02 18:33:55;;;;;;;;;;;18.40;99.90;;;;;;4996622;28;19922;-80
2023/08/02 18:36:21;;;;;;;;;;;18.30;99.90;;;;;;4996096;28;19973;-82
2023/08/02 18:38:47;;;;;;;;;;;18.30;99.90;;;;;;4996085;28;19929;-81
2023/08/02 18:41:20;;;;;;;;;;;18.20;99.90;;;;;;4996067;28;19922;-81
2023/08/02 18:43:46;;;;;;;;;;;18.10;99.90;;;;;;4978642;28;20370;-82
2023/08/02 18:46:21;;;;;;;;;;;18.00;99.90;;;;;;4995979;28;19946;-82
2023/08/02 18:48:52;;;;;;;;;;;17.90;99.90;;;;;;4995875;28;19929;-80
2023/08/02 18:51:36;;;;;;;;;;;17.80;99.90;;;;;;4980821;28;19922;-85
2023/08/02 18:54:05;;;;;;;;;;;17.60;99.90;;;;;;4995973;28;19973;-83
2023/08/02 18:56:43;;;;;;;;;;;17.40;99.90;;;;;;4995868;28;19926;-82
2023/08/02 18:59:09;;;;;;;;;;;17.20;99.90;;;;;;4995231;28;19973;-84
2023/08/02 19:01:35;;;;;;;;;;;17.00;99.90;;;;;;4978155;28;19925;-84
2023/08/02 19:04:00;;;;;;;;;;;17.00;99.90;;;;;;4995535;28;19936;-79
2023/08/02 19:06:36;;;;;;;;;;;16.80;99.90;;;;;;4977674;28;19921;-84
2023/08/02 19:09:01;;;;;;;;;;;16.70;99.90;;;;;;4995202;28;19929;-84
2023/08/02 19:11:32;;;;;;;;;;;16.60;99.90;;;;;;4978009;28;19981;-83
2023/08/02 19:13:57;;;;;;;;;;;16.60;99.90;;;;;;4978094;28;20007;-86
2023/08/02 19:16:23;;;;;;;;;;;16.50;99.90;;;;;;4977776;28;19964;-83
2023/08/02 19:18:48;;;;;;;;;;;16.50;99.90;;;;;;4978785;28;19954;-83
2023/08/02 19:21:14;;;;;;;;;;;16.40;99.90;;;;;;4994890;28;19961;-81
2023/08/02 19:23:42;;;;;;;;;;;16.30;99.90;;;;;;4995372;28;20127;-82
2023/08/02 19:26:10;;;;;;;;;;;16.30;99.90;;;;;;4995222;28;19931;-82
2023/08/02 19:28:35;;;;;;;;;;;16.20;99.90;;;;;;4995346;28;19921;-83
2023/08/02 19:31:01;;;;;;;;;;;16.20;99.90;;;;;;4977976;28;19922;-83
2023/08/02 19:33:26;;;;;;;;;;;16.20;99.90;;;;;;4977755;28;20008;-84
2023/08/02 19:35:52;;;;;;;;;;;16.20;99.90;;;;;;4995358;28;20392;-84
2023/08/02 19:38:21;;;;;;;;;;;16.10;99.90;;;;;;4996064;28;20342;-82
2023/08/02 19:40:50;;;;;;;;;;;16.20;99.90;;;;;;4978411;28;19928;-84
2023/08/02 19:43:16;;;;;;;;;;;16.10;99.90;;;;;;4995349;28;19926;-88
2023/08/02 19:45:41;;;;;;;;;;;16.10;99.90;;;;;;4977509;28;20000;-83
2023/08/02 19:48:09;;;;;;;;;;;16.10;99.90;;;;;;4977667;28;19922;-85
2023/08/02 19:50:35;;;;;;;;;;;16.10;99.90;;;;;;4977659;28;19922;-85
2023/08/02 19:53:01;;;;;;;;;;;16.10;99.90;;;;;;4977379;28;19926;-85